sensor_id;sensor_type;location;lat;lon;timestamp;P1;durP1;ratioP1;P2;durP2;ratioP2
11111;SDS011;5609;49.466;8.468;2022-09-20T00:00:34;3.83;;;2.27;;
11111;SDS011;5609;49.466;8.468;2022-09-20T00:03:01;5.23;;;2.40;;
11111;SDS011;5609;49.466;8.468;2022-09-20T00:05:28;5.23;;;2.50;;
11111;SDS011;5609;49.466;8.468;2022-09-20T00:07:57;5.43;;;2.40;;
11111;SDS011;5609;49.466;8.468;2022-09-20T00:10:24;6.27;;;2.70;;
11111;SDS011;5609;49.466;8.468;2022-09-20T00:12:51;4.30;;;2.43;;
11111;SDS011;5609;49.466;8.468;2022-09-20T00:15:18;5.03;;;2.33;;
11111;SDS011;5609;49.466;8.468;2022-09-20T00:17:45;4.13;;;2.17;;
11111;SDS011;5609;49.466;8.468;2022-09-20T00:20:12;5.80;;;2.33;;
11111;SDS011;5609;49.466;8.468;2022-09-20T00:22:39;5.50;;;2.37;;
11111;SDS011;5609;49.466;8.468;2022-09-20T00:25:08;3.13;;;2.10;;
11111;SDS011;5609;49.466;8.468;2022-09-20T00:27:35;4.77;;;2.33;;
11111;SDS011;5609;49.466;8.468;2022-09-20T00:30:03;4.23;;;2.40;;
11111;SDS011;5609;49.466;8.468;2022-09-20T00:32:30;3.87;;;2.40;;
11111;SDS011;5609;49.466;8.468;2022-09-20T00:34:57;3.93;;;2.40;;
11111;SDS011;5609;49.466;8.468;2022-09-20T00:37:32;4.23;;;2.20;;
11111;SDS011;5609;49.466;8.468;2022-09-20T00:39:59;6.13;;;2.37;;
11111;SDS011;5609;49.466;8.468;2022-09-20T00:42:28;3.93;;;2.40;;
11111;SDS011;5609;49.466;8.468;2022-09-20T00:44:56;5.07;;;2.20;;
11111;SDS011;5609;49.466;8.468;2022-09-20T00:47:26;4.10;;;2.10;;
11111;SDS011;5609;49.466;8.468;2022-09-20T00:49:55;4.33;;;2.30;;
11111;SDS011;5609;49.466;8.468;2022-09-20T00:52:24;5.80;;;2.33;;
11111;SDS011;5609;49.466;8.468;2022-09-20T00:54:51;2.77;;;2.10;;
11111;SDS011;5609;49.466;8.468;2022-09-20T00:57:19;6.57;;;2.40;;
11111;SDS011;5609;49.466;8.468;2022-09-20T00:59:48;3.80;;;2.40;;
11111;SDS011;5609;49.466;8.468;2022-09-20T01:02:17;4.20;;;2.40;;
11111;SDS011;5609;49.466;8.468;2022-09-20T01:04:45;5.80;;;2.30;;
11111;SDS011;5609;49.466;8.468;2022-09-20T01:07:14;5.50;;;2.50;;
11111;SDS011;5609;49.466;8.468;2022-09-20T01:09:41;6.20;;;2.57;;
11111;SDS011;5609;49.466;8.468;2022-09-20T01:12:10;3.30;;;2.37;;
11111;SDS011;5609;49.466;8.468;2022-09-20T01:14:39;3.10;;;2.10;;
11111;SDS011;5609;49.466;8.468;2022-09-20T01:17:08;3.67;;;2.07;;
11111;SDS011;5609;49.466;8.468;2022-09-20T01:19:37;4.00;;;2.27;;
11111;SDS011;5609;49.466;8.468;2022-09-20T01:22:08;4.93;;;2.07;;
11111;SDS011;5609;49.466;8.468;2022-09-20T01:24:40;3.93;;;2.40;;
11111;SDS011;5609;49.466;8.468;2022-09-20T01:27:12;3.80;;;2.10;;
11111;SDS011;5609;49.466;8.468;2022-09-20T01:29:51;5.27;;;2.50;;
11111;SDS011;5609;49.466;8.468;2022-09-20T01:32:24;3.97;;;2.03;;
11111;SDS011;5609;49.466;8.468;2022-09-20T01:34:57;4.13;;;2.20;;
11111;SDS011;5609;49.466;8.468;2022-09-20T01:37:26;4.47;;;1.93;;
11111;SDS011;5609;49.466;8.468;2022-09-20T01:39:56;2.90;;;1.90;;
11111;SDS011;5609;49.466;8.468;2022-09-20T01:42:27;4.97;;;2.30;;
11111;SDS011;5609;49.466;8.468;2022-09-20T01:45:00;5.10;;;2.23;;
11111;SDS011;5609;49.466;8.468;2022-09-20T01:47:30;5.27;;;2.20;;
11111;SDS011;5609;49.466;8.468;2022-09-20T01:50:01;3.47;;;2.00;;
11111;SDS011;5609;49.466;8.468;2022-09-20T01:52:48;3.03;;;2.10;;
11111;SDS011;5609;49.466;8.468;2022-09-20T01:55:34;4.90;;;2.47;;
11111;SDS011;5609;49.466;8.468;2022-09-20T01:58:07;5.03;;;2.30;;
11111;SDS011;5609;49.466;8.468;2022-09-20T02:00:39;4.30;;;2.13;;
11111;SDS011;5609;49.466;8.468;2022-09-20T02:03:23;3.70;;;2.13;;
11111;SDS011;5609;49.466;8.468;2022-09-20T02:11:25;2.33;;;1.80;;
11111;SDS011;5609;49.466;8.468;2022-09-20T02:14:02;3.90;;;2.23;;
11111;SDS011;5609;49.466;8.468;2022-09-20T02:19:44;3.37;;;2.00;;
11111;SDS011;5609;49.466;8.468;2022-09-20T02:22:16;5.63;;;2.40;;
11111;SDS011;5609;49.466;8.468;2022-09-20T02:24:47;5.80;;;2.70;;
11111;SDS011;5609;49.466;8.468;2022-09-20T02:27:19;5.40;;;2.10;;
11111;SDS011;5609;49.466;8.468;2022-09-20T02:29:50;4.37;;;2.20;;
11111;SDS011;5609;49.466;8.468;2022-09-20T02:32:22;4.37;;;1.87;;
11111;SDS011;5609;49.466;8.468;2022-09-20T02:35:02;6.43;;;1.97;;
11111;SDS011;5609;49.466;8.468;2022-09-20T02:37:38;4.00;;;2.00;;
11111;SDS011;5609;49.466;8.468;2022-09-20T02:40:13;4.93;;;2.00;;
11111;SDS011;5609;49.466;8.468;2022-09-20T02:42:44;5.87;;;2.50;;
11111;SDS011;5609;49.466;8.468;2022-09-20T02:45:15;5.60;;;2.10;;
11111;SDS011;5609;49.466;8.468;2022-09-20T02:47:44;3.67;;;2.03;;
11111;SDS011;5609;49.466;8.468;2022-09-20T02:50:17;4.70;;;1.97;;
11111;SDS011;5609;49.466;8.468;2022-09-20T02:52:50;4.80;;;2.17;;
11111;SDS011;5609;49.466;8.468;2022-09-20T02:55:20;3.97;;;2.30;;
11111;SDS011;5609;49.466;8.468;2022-09-20T02:57:53;4.27;;;1.90;;
11111;SDS011;5609;49.466;8.468;2022-09-20T03:00:24;4.33;;;1.97;;
11111;SDS011;5609;49.466;8.468;2022-09-20T03:02:59;5.60;;;1.80;;
11111;SDS011;5609;49.466;8.468;2022-09-20T03:05:28;4.70;;;2.00;;
11111;SDS011;5609;49.466;8.468;2022-09-20T03:08:03;5.43;;;1.93;;
11111;SDS011;5609;49.466;8.468;2022-09-20T03:10:35;6.43;;;2.30;;
11111;SDS011;5609;49.466;8.468;2022-09-20T03:13:07;4.67;;;2.07;;
11111;SDS011;5609;49.466;8.468;2022-09-20T03:15:39;6.83;;;2.30;;
11111;SDS011;5609;49.466;8.468;2022-09-20T03:18:08;7.10;;;1.93;;
11111;SDS011;5609;49.466;8.468;2022-09-20T03:20:40;5.83;;;1.90;;
11111;SDS011;5609;49.466;8.468;2022-09-20T03:23:11;5.17;;;2.00;;
11111;SDS011;5609;49.466;8.468;2022-09-20T03:25:44;4.33;;;2.20;;
11111;SDS011;5609;49.466;8.468;2022-09-20T03:28:15;3.97;;;1.80;;
11111;SDS011;5609;49.466;8.468;2022-09-20T03:30:53;4.53;;;2.07;;
11111;SDS011;5609;49.466;8.468;2022-09-20T03:33:24;3.70;;;1.97;;
11111;SDS011;5609;49.466;8.468;2022-09-20T03:35:57;4.57;;;2.10;;
11111;SDS011;5609;49.466;8.468;2022-09-20T03:38:38;6.40;;;2.20;;
11111;SDS011;5609;49.466;8.468;2022-09-20T03:44:00;5.43;;;1.80;;
11111;SDS011;5609;49.466;8.468;2022-09-20T03:46:32;3.70;;;1.93;;
11111;SDS011;5609;49.466;8.468;2022-09-20T03:49:11;3.47;;;1.70;;
11111;SDS011;5609;49.466;8.468;2022-09-20T03:51:50;3.90;;;1.77;;
11111;SDS011;5609;49.466;8.468;2022-09-20T03:57:13;5.60;;;1.87;;
11111;SDS011;5609;49.466;8.468;2022-09-20T03:59:53;3.23;;;1.70;;
11111;SDS011;5609;49.466;8.468;2022-09-20T04:02:32;3.87;;;1.83;;
11111;SDS011;5609;49.466;8.468;2022-09-20T04:05:02;4.93;;;2.10;;
11111;SDS011;5609;49.466;8.468;2022-09-20T04:07:34;5.63;;;1.90;;
11111;SDS011;5609;49.466;8.468;2022-09-20T04:10:10;6.47;;;1.97;;
11111;SDS011;5609;49.466;8.468;2022-09-20T04:12:41;5.43;;;2.10;;
11111;SDS011;5609;49.466;8.468;2022-09-20T04:15:15;4.50;;;2.00;;
11111;SDS011;5609;49.466;8.468;2022-09-20T04:17:46;3.53;;;1.73;;
11111;SDS011;5609;49.466;8.468;2022-09-20T04:20:16;5.50;;;1.97;;
11111;SDS011;5609;49.466;8.468;2022-09-20T04:22:46;6.60;;;1.80;;
11111;SDS011;5609;49.466;8.468;2022-09-20T04:25:16;4.77;;;2.17;;
11111;SDS011;5609;49.466;8.468;2022-09-20T04:27:45;5.17;;;1.90;;
11111;SDS011;5609;49.466;8.468;2022-09-20T04:30:15;6.57;;;2.20;;
11111;SDS011;5609;49.466;8.468;2022-09-20T04:32:45;4.27;;;2.00;;
11111;SDS011;5609;49.466;8.468;2022-09-20T04:35:15;4.10;;;1.93;;
11111;SDS011;5609;49.466;8.468;2022-09-20T04:38:04;4.43;;;2.10;;
11111;SDS011;5609;49.466;8.468;2022-09-20T04:40:39;4.53;;;2.00;;
11111;SDS011;5609;49.466;8.468;2022-09-20T04:43:36;4.00;;;1.90;;
11111;SDS011;5609;49.466;8.468;2022-09-20T04:46:26;5.97;;;2.30;;
11111;SDS011;5609;49.466;8.468;2022-09-20T04:51:54;5.40;;;2.10;;
11111;SDS011;5609;49.466;8.468;2022-09-20T04:57:26;8.10;;;2.37;;
11111;SDS011;5609;49.466;8.468;2022-09-20T05:00:00;6.23;;;2.10;;
11111;SDS011;5609;49.466;8.468;2022-09-20T05:02:45;6.43;;;2.20;;
11111;SDS011;5609;49.466;8.468;2022-09-20T05:08:25;5.13;;;2.43;;
11111;SDS011;5609;49.466;8.468;2022-09-20T05:11:15;8.73;;;2.60;;
11111;SDS011;5609;49.466;8.468;2022-09-20T05:16:35;6.90;;;2.47;;
11111;SDS011;5609;49.466;8.468;2022-09-20T05:19:12;7.03;;;2.47;;
11111;SDS011;5609;49.466;8.468;2022-09-20T05:21:45;7.93;;;2.60;;
11111;SDS011;5609;49.466;8.468;2022-09-20T05:24:25;7.97;;;2.30;;
11111;SDS011;5609;49.466;8.468;2022-09-20T05:27:00;5.87;;;2.40;;
11111;SDS011;5609;49.466;8.468;2022-09-20T05:29:30;6.30;;;2.63;;
11111;SDS011;5609;49.466;8.468;2022-09-20T05:32:02;7.60;;;2.43;;
11111;SDS011;5609;49.466;8.468;2022-09-20T05:34:33;5.37;;;2.77;;
11111;SDS011;5609;49.466;8.468;2022-09-20T05:37:09;7.37;;;2.73;;
11111;SDS011;5609;49.466;8.468;2022-09-20T05:39:39;6.17;;;2.90;;
11111;SDS011;5609;49.466;8.468;2022-09-20T05:42:11;9.03;;;2.80;;
11111;SDS011;5609;49.466;8.468;2022-09-20T05:44:56;5.47;;;2.20;;
11111;SDS011;5609;49.466;8.468;2022-09-20T05:47:30;7.33;;;2.80;;
11111;SDS011;5609;49.466;8.468;2022-09-20T05:49:59;4.97;;;2.53;;
11111;SDS011;5609;49.466;8.468;2022-09-20T05:52:35;8.30;;;2.90;;
11111;SDS011;5609;49.466;8.468;2022-09-20T05:58:02;7.63;;;2.60;;
11111;SDS011;5609;49.466;8.468;2022-09-20T06:00:34;6.00;;;2.70;;
11111;SDS011;5609;49.466;8.468;2022-09-20T06:03:08;6.63;;;2.80;;
11111;SDS011;5609;49.466;8.468;2022-09-20T06:05:40;5.30;;;2.50;;
11111;SDS011;5609;49.466;8.468;2022-09-20T06:08:16;8.70;;;3.37;;
11111;SDS011;5609;49.466;8.468;2022-09-20T06:10:53;4.60;;;2.60;;
11111;SDS011;5609;49.466;8.468;2022-09-20T06:13:25;5.47;;;2.63;;
11111;SDS011;5609;49.466;8.468;2022-09-20T06:15:55;4.83;;;2.70;;
11111;SDS011;5609;49.466;8.468;2022-09-20T06:18:26;6.33;;;2.70;;
11111;SDS011;5609;49.466;8.468;2022-09-20T06:20:59;7.83;;;2.80;;
11111;SDS011;5609;49.466;8.468;2022-09-20T06:23:29;7.63;;;2.77;;
11111;SDS011;5609;49.466;8.468;2022-09-20T06:25:58;8.10;;;3.00;;
11111;SDS011;5609;49.466;8.468;2022-09-20T06:28:27;6.50;;;3.27;;
11111;SDS011;5609;49.466;8.468;2022-09-20T06:30:55;9.40;;;3.30;;
11111;SDS011;5609;49.466;8.468;2022-09-20T06:33:23;8.73;;;3.43;;
11111;SDS011;5609;49.466;8.468;2022-09-20T06:35:52;11.43;;;3.67;;
11111;SDS011;5609;49.466;8.468;2022-09-20T06:38:29;7.50;;;3.40;;
11111;SDS011;5609;49.466;8.468;2022-09-20T06:41:16;8.17;;;3.77;;
11111;SDS011;5609;49.466;8.468;2022-09-20T06:43:52;5.83;;;3.97;;
11111;SDS011;5609;49.466;8.468;2022-09-20T06:46:23;7.57;;;4.10;;
11111;SDS011;5609;49.466;8.468;2022-09-20T06:48:50;7.60;;;4.13;;
11111;SDS011;5609;49.466;8.468;2022-09-20T06:51:18;5.87;;;3.97;;
11111;SDS011;5609;49.466;8.468;2022-09-20T06:53:46;8.63;;;4.07;;
11111;SDS011;5609;49.466;8.468;2022-09-20T06:56:14;7.20;;;3.97;;
11111;SDS011;5609;49.466;8.468;2022-09-20T06:58:43;6.63;;;4.17;;
11111;SDS011;5609;49.466;8.468;2022-09-20T07:01:10;9.40;;;4.30;;
11111;SDS011;5609;49.466;8.468;2022-09-20T07:03:37;7.97;;;4.40;;
11111;SDS011;5609;49.466;8.468;2022-09-20T07:06:04;10.57;;;4.97;;
11111;SDS011;5609;49.466;8.468;2022-09-20T07:08:33;7.40;;;4.37;;
11111;SDS011;5609;49.466;8.468;2022-09-20T07:11:03;7.13;;;4.10;;
11111;SDS011;5609;49.466;8.468;2022-09-20T07:13:31;6.57;;;3.87;;
11111;SDS011;5609;49.466;8.468;2022-09-20T07:16:01;7.83;;;4.47;;
11111;SDS011;5609;49.466;8.468;2022-09-20T07:18:28;5.97;;;4.13;;
11111;SDS011;5609;49.466;8.468;2022-09-20T07:20:56;7.07;;;4.20;;
11111;SDS011;5609;49.466;8.468;2022-09-20T07:23:23;7.80;;;4.00;;
11111;SDS011;5609;49.466;8.468;2022-09-20T07:25:52;5.67;;;3.77;;
11111;SDS011;5609;49.466;8.468;2022-09-20T07:28:21;7.70;;;3.80;;
11111;SDS011;5609;49.466;8.468;2022-09-20T07:30:48;7.57;;;3.47;;
11111;SDS011;5609;49.466;8.468;2022-09-20T07:33:15;6.87;;;3.73;;
11111;SDS011;5609;49.466;8.468;2022-09-20T07:35:45;7.10;;;3.33;;
11111;SDS011;5609;49.466;8.468;2022-09-20T07:38:12;7.63;;;3.50;;
11111;SDS011;5609;49.466;8.468;2022-09-20T07:40:41;9.87;;;3.57;;
11111;SDS011;5609;49.466;8.468;2022-09-20T07:43:10;8.10;;;3.57;;
11111;SDS011;5609;49.466;8.468;2022-09-20T07:45:38;6.87;;;3.60;;
11111;SDS011;5609;49.466;8.468;2022-09-20T07:48:05;8.43;;;3.80;;
11111;SDS011;5609;49.466;8.468;2022-09-20T07:50:33;8.40;;;3.80;;
11111;SDS011;5609;49.466;8.468;2022-09-20T07:53:00;7.50;;;3.80;;
11111;SDS011;5609;49.466;8.468;2022-09-20T07:55:28;10.53;;;4.33;;
11111;SDS011;5609;49.466;8.468;2022-09-20T07:57:56;10.67;;;4.07;;
11111;SDS011;5609;49.466;8.468;2022-09-20T08:00:24;8.53;;;4.30;;
11111;SDS011;5609;49.466;8.468;2022-09-20T08:02:57;12.07;;;4.67;;
11111;SDS011;5609;49.466;8.468;2022-09-20T08:05:25;11.03;;;4.10;;
11111;SDS011;5609;49.466;8.468;2022-09-20T08:07:52;10.67;;;4.17;;
11111;SDS011;5609;49.466;8.468;2022-09-20T08:10:19;7.93;;;3.90;;
11111;SDS011;5609;49.466;8.468;2022-09-20T08:12:50;9.93;;;4.10;;
11111;SDS011;5609;49.466;8.468;2022-09-20T08:15:17;7.53;;;4.50;;
11111;SDS011;5609;49.466;8.468;2022-09-20T08:17:47;8.93;;;4.53;;
11111;SDS011;5609;49.466;8.468;2022-09-20T08:20:14;7.93;;;3.90;;
11111;SDS011;5609;49.466;8.468;2022-09-20T08:22:42;8.60;;;4.40;;
11111;SDS011;5609;49.466;8.468;2022-09-20T08:25:09;7.70;;;4.33;;
11111;SDS011;5609;49.466;8.468;2022-09-20T08:27:36;9.07;;;4.37;;
11111;SDS011;5609;49.466;8.468;2022-09-20T08:30:03;7.90;;;4.60;;
11111;SDS011;5609;49.466;8.468;2022-09-20T08:32:31;10.87;;;4.60;;
11111;SDS011;5609;49.466;8.468;2022-09-20T08:35:00;8.10;;;4.40;;
11111;SDS011;5609;49.466;8.468;2022-09-20T08:37:27;9.20;;;4.70;;
11111;SDS011;5609;49.466;8.468;2022-09-20T08:39:54;9.10;;;4.80;;
11111;SDS011;5609;49.466;8.468;2022-09-20T08:42:23;8.70;;;5.20;;
11111;SDS011;5609;49.466;8.468;2022-09-20T08:44:54;7.93;;;4.20;;
11111;SDS011;5609;49.466;8.468;2022-09-20T08:47:23;10.07;;;3.83;;
11111;SDS011;5609;49.466;8.468;2022-09-20T08:49:51;8.80;;;3.63;;
11111;SDS011;5609;49.466;8.468;2022-09-20T08:52:22;8.07;;;3.23;;
11111;SDS011;5609;49.466;8.468;2022-09-20T08:54:51;7.57;;;3.10;;
11111;SDS011;5609;49.466;8.468;2022-09-20T08:57:20;8.83;;;3.20;;
11111;SDS011;5609;49.466;8.468;2022-09-20T08:59:47;6.97;;;3.10;;
11111;SDS011;5609;49.466;8.468;2022-09-20T09:02:16;9.93;;;3.30;;
11111;SDS011;5609;49.466;8.468;2022-09-20T09:04:47;7.63;;;3.10;;
11111;SDS011;5609;49.466;8.468;2022-09-20T09:07:18;6.57;;;2.53;;
11111;SDS011;5609;49.466;8.468;2022-09-20T09:09:47;6.57;;;2.70;;
11111;SDS011;5609;49.466;8.468;2022-09-20T09:12:17;8.43;;;2.33;;
11111;SDS011;5609;49.466;8.468;2022-09-20T09:14:44;6.87;;;2.27;;
11111;SDS011;5609;49.466;8.468;2022-09-20T09:17:19;5.33;;;1.90;;
11111;SDS011;5609;49.466;8.468;2022-09-20T09:19:47;5.47;;;2.13;;
11111;SDS011;5609;49.466;8.468;2022-09-20T09:22:16;6.50;;;2.93;;
11111;SDS011;5609;49.466;8.468;2022-09-20T09:24:44;8.13;;;2.70;;
11111;SDS011;5609;49.466;8.468;2022-09-20T09:27:15;7.40;;;2.50;;
11111;SDS011;5609;49.466;8.468;2022-09-20T09:29:47;7.03;;;2.47;;
11111;SDS011;5609;49.466;8.468;2022-09-20T09:32:19;6.87;;;2.37;;
11111;SDS011;5609;49.466;8.468;2022-09-20T09:34:47;6.57;;;2.30;;
11111;SDS011;5609;49.466;8.468;2022-09-20T09:37:22;5.03;;;2.10;;
11111;SDS011;5609;49.466;8.468;2022-09-20T09:40:05;7.43;;;2.10;;
11111;SDS011;5609;49.466;8.468;2022-09-20T09:42:33;6.47;;;2.17;;
11111;SDS011;5609;49.466;8.468;2022-09-20T09:45:09;5.50;;;2.27;;
11111;SDS011;5609;49.466;8.468;2022-09-20T09:47:36;7.03;;;1.97;;
11111;SDS011;5609;49.466;8.468;2022-09-20T09:50:03;5.90;;;2.00;;
11111;SDS011;5609;49.466;8.468;2022-09-20T09:52:30;6.23;;;2.20;;
11111;SDS011;5609;49.466;8.468;2022-09-20T09:54:59;5.50;;;1.90;;
11111;SDS011;5609;49.466;8.468;2022-09-20T09:57:31;4.67;;;1.80;;
11111;SDS011;5609;49.466;8.468;2022-09-20T10:00:08;3.73;;;1.70;;
11111;SDS011;5609;49.466;8.468;2022-09-20T10:05:21;7.27;;;2.17;;
11111;SDS011;5609;49.466;8.468;2022-09-20T10:07:54;4.00;;;2.37;;
11111;SDS011;5609;49.466;8.468;2022-09-20T10:10:28;6.57;;;1.90;;
11111;SDS011;5609;49.466;8.468;2022-09-20T10:13:01;5.77;;;1.90;;
11111;SDS011;5609;49.466;8.468;2022-09-20T10:15:35;4.37;;;1.60;;
11111;SDS011;5609;49.466;8.468;2022-09-20T10:18:11;5.47;;;2.33;;
11111;SDS011;5609;49.466;8.468;2022-09-20T10:23:26;9.97;;;2.60;;
11111;SDS011;5609;49.466;8.468;2022-09-20T10:26:05;6.80;;;2.47;;
11111;SDS011;5609;49.466;8.468;2022-09-20T10:28:40;7.30;;;2.63;;
11111;SDS011;5609;49.466;8.468;2022-09-20T10:31:16;6.13;;;2.63;;
11111;SDS011;5609;49.466;8.468;2022-09-20T10:34:03;5.10;;;2.30;;
11111;SDS011;5609;49.466;8.468;2022-09-20T10:36:36;6.13;;;2.70;;
11111;SDS011;5609;49.466;8.468;2022-09-20T10:39:09;6.47;;;2.87;;
11111;SDS011;5609;49.466;8.468;2022-09-20T10:41:42;6.83;;;2.83;;
11111;SDS011;5609;49.466;8.468;2022-09-20T10:44:32;5.80;;;2.50;;
11111;SDS011;5609;49.466;8.468;2022-09-20T10:47:05;5.47;;;2.43;;
11111;SDS011;5609;49.466;8.468;2022-09-20T10:49:35;8.07;;;2.77;;
11111;SDS011;5609;49.466;8.468;2022-09-20T10:54:56;5.43;;;3.30;;
11111;SDS011;5609;49.466;8.468;2022-09-20T10:57:47;6.27;;;2.80;;
11111;SDS011;5609;49.466;8.468;2022-09-20T11:00:18;8.63;;;2.80;;
11111;SDS011;5609;49.466;8.468;2022-09-20T11:02:50;8.20;;;2.87;;
11111;SDS011;5609;49.466;8.468;2022-09-20T11:05:28;4.73;;;2.23;;
11111;SDS011;5609;49.466;8.468;2022-09-20T11:07:58;4.33;;;2.20;;
11111;SDS011;5609;49.466;8.468;2022-09-20T11:10:27;5.20;;;2.30;;
11111;SDS011;5609;49.466;8.468;2022-09-20T11:12:57;3.53;;;2.20;;
11111;SDS011;5609;49.466;8.468;2022-09-20T11:15:26;7.33;;;2.60;;
11111;SDS011;5609;49.466;8.468;2022-09-20T11:17:58;7.90;;;2.70;;
11111;SDS011;5609;49.466;8.468;2022-09-20T11:20:27;4.73;;;2.57;;
11111;SDS011;5609;49.466;8.468;2022-09-20T11:22:57;4.07;;;2.50;;
11111;SDS011;5609;49.466;8.468;2022-09-20T11:25:28;4.20;;;2.70;;
11111;SDS011;5609;49.466;8.468;2022-09-20T11:27:57;4.17;;;2.30;;
11111;SDS011;5609;49.466;8.468;2022-09-20T11:30:27;4.13;;;2.17;;
11111;SDS011;5609;49.466;8.468;2022-09-20T11:32:55;3.87;;;2.20;;
11111;SDS011;5609;49.466;8.468;2022-09-20T11:35:28;3.93;;;2.30;;
11111;SDS011;5609;49.466;8.468;2022-09-20T11:38:00;5.03;;;2.20;;
11111;SDS011;5609;49.466;8.468;2022-09-20T11:40:30;3.47;;;2.33;;
11111;SDS011;5609;49.466;8.468;2022-09-20T11:42:58;5.37;;;2.20;;
11111;SDS011;5609;49.466;8.468;2022-09-20T11:45:26;4.87;;;2.20;;
11111;SDS011;5609;49.466;8.468;2022-09-20T11:47:55;4.67;;;2.20;;
11111;SDS011;5609;49.466;8.468;2022-09-20T11:50:32;2.93;;;1.90;;
11111;SDS011;5609;49.466;8.468;2022-09-20T11:53:04;3.90;;;2.23;;
11111;SDS011;5609;49.466;8.468;2022-09-20T11:55:37;4.93;;;2.00;;
11111;SDS011;5609;49.466;8.468;2022-09-20T11:58:08;4.07;;;2.20;;
11111;SDS011;5609;49.466;8.468;2022-09-20T12:00:36;3.67;;;1.90;;
11111;SDS011;5609;49.466;8.468;2022-09-20T12:03:06;4.00;;;1.90;;
11111;SDS011;5609;49.466;8.468;2022-09-20T12:05:38;3.30;;;2.13;;
11111;SDS011;5609;49.466;8.468;2022-09-20T12:08:07;3.40;;;2.07;;
11111;SDS011;5609;49.466;8.468;2022-09-20T12:10:35;2.97;;;2.00;;
11111;SDS011;5609;49.466;8.468;2022-09-20T12:13:03;3.53;;;1.90;;
11111;SDS011;5609;49.466;8.468;2022-09-20T12:15:32;2.43;;;1.80;;
11111;SDS011;5609;49.466;8.468;2022-09-20T12:18:02;3.73;;;2.10;;
11111;SDS011;5609;49.466;8.468;2022-09-20T12:26:02;5.07;;;2.33;;
11111;SDS011;5609;49.466;8.468;2022-09-20T12:28:33;4.63;;;2.97;;
11111;SDS011;5609;49.466;8.468;2022-09-20T12:33:55;4.33;;;2.50;;
11111;SDS011;5609;49.466;8.468;2022-09-20T12:36:23;4.10;;;2.17;;
11111;SDS011;5609;49.466;8.468;2022-09-20T12:38:56;3.27;;;1.87;;
11111;SDS011;5609;49.466;8.468;2022-09-20T12:41:24;2.23;;;1.70;;
11111;SDS011;5609;49.466;8.468;2022-09-20T12:43:59;4.00;;;2.10;;
11111;SDS011;5609;49.466;8.468;2022-09-20T12:46:33;2.77;;;1.93;;
11111;SDS011;5609;49.466;8.468;2022-09-20T12:55:28;2.57;;;1.67;;
11111;SDS011;5609;49.466;8.468;2022-09-20T12:57:58;2.77;;;1.57;;
11111;SDS011;5609;49.466;8.468;2022-09-20T13:00:28;2.33;;;1.57;;
11111;SDS011;5609;49.466;8.468;2022-09-20T13:02:58;3.50;;;1.67;;
11111;SDS011;5609;49.466;8.468;2022-09-20T13:05:33;2.50;;;1.60;;
11111;SDS011;5609;49.466;8.468;2022-09-20T13:08:03;2.23;;;1.80;;
11111;SDS011;5609;49.466;8.468;2022-09-20T13:10:38;4.20;;;1.90;;
11111;SDS011;5609;49.466;8.468;2022-09-20T13:13:12;2.90;;;1.90;;
11111;SDS011;5609;49.466;8.468;2022-09-20T13:15:46;3.40;;;2.00;;
11111;SDS011;5609;49.466;8.468;2022-09-20T13:18:14;2.20;;;1.80;;
11111;SDS011;5609;49.466;8.468;2022-09-20T13:20:41;3.37;;;1.87;;
11111;SDS011;5609;49.466;8.468;2022-09-20T13:23:10;3.83;;;1.93;;
11111;SDS011;5609;49.466;8.468;2022-09-20T13:25:43;3.37;;;2.00;;
11111;SDS011;5609;49.466;8.468;2022-09-20T13:28:14;3.60;;;2.07;;
11111;SDS011;5609;49.466;8.468;2022-09-20T13:30:44;3.73;;;1.90;;
11111;SDS011;5609;49.466;8.468;2022-09-20T13:33:20;2.83;;;2.00;;
11111;SDS011;5609;49.466;8.468;2022-09-20T13:35:48;4.47;;;2.20;;
11111;SDS011;5609;49.466;8.468;2022-09-20T13:38:18;3.07;;;2.03;;
11111;SDS011;5609;49.466;8.468;2022-09-20T13:40:48;3.83;;;2.10;;
11111;SDS011;5609;49.466;8.468;2022-09-20T13:43:18;4.53;;;2.13;;
11111;SDS011;5609;49.466;8.468;2022-09-20T13:45:50;3.40;;;2.50;;
11111;SDS011;5609;49.466;8.468;2022-09-20T13:48:18;5.60;;;2.20;;
11111;SDS011;5609;49.466;8.468;2022-09-20T13:50:45;4.53;;;2.30;;
11111;SDS011;5609;49.466;8.468;2022-09-20T13:53:13;4.07;;;2.17;;
11111;SDS011;5609;49.466;8.468;2022-09-20T13:55:41;3.90;;;2.10;;
11111;SDS011;5609;49.466;8.468;2022-09-20T13:58:16;4.47;;;2.30;;
11111;SDS011;5609;49.466;8.468;2022-09-20T14:00:45;6.30;;;2.60;;
11111;SDS011;5609;49.466;8.468;2022-09-20T14:03:13;3.63;;;2.43;;
11111;SDS011;5609;49.466;8.468;2022-09-20T14:05:44;4.63;;;2.23;;
11111;SDS011;5609;49.466;8.468;2022-09-20T14:08:12;4.60;;;2.23;;
11111;SDS011;5609;49.466;8.468;2022-09-20T14:10:41;2.30;;;2.10;;
11111;SDS011;5609;49.466;8.468;2022-09-20T14:13:13;4.80;;;2.40;;
11111;SDS011;5609;49.466;8.468;2022-09-20T14:15:42;4.93;;;2.70;;
11111;SDS011;5609;49.466;8.468;2022-09-20T14:18:12;4.00;;;2.90;;
11111;SDS011;5609;49.466;8.468;2022-09-20T14:20:40;4.63;;;2.47;;
11111;SDS011;5609;49.466;8.468;2022-09-20T14:23:15;3.73;;;2.37;;
11111;SDS011;5609;49.466;8.468;2022-09-20T14:25:43;4.07;;;1.80;;
11111;SDS011;5609;49.466;8.468;2022-09-20T14:28:31;2.83;;;1.90;;
11111;SDS011;5609;49.466;8.468;2022-09-20T14:31:03;2.80;;;1.90;;
11111;SDS011;5609;49.466;8.468;2022-09-20T14:33:34;4.27;;;1.80;;
11111;SDS011;5609;49.466;8.468;2022-09-20T14:36:10;2.70;;;1.50;;
11111;SDS011;5609;49.466;8.468;2022-09-20T14:38:38;2.53;;;1.67;;
11111;SDS011;5609;49.466;8.468;2022-09-20T14:41:05;3.60;;;1.60;;
11111;SDS011;5609;49.466;8.468;2022-09-20T14:43:33;3.40;;;1.70;;
11111;SDS011;5609;49.466;8.468;2022-09-20T14:46:02;3.13;;;1.63;;
11111;SDS011;5609;49.466;8.468;2022-09-20T14:48:31;5.00;;;1.60;;
11111;SDS011;5609;49.466;8.468;2022-09-20T14:51:18;2.57;;;1.60;;
11111;SDS011;5609;49.466;8.468;2022-09-20T14:53:47;3.20;;;1.50;;
11111;SDS011;5609;49.466;8.468;2022-09-20T14:56:14;2.70;;;1.37;;
11111;SDS011;5609;49.466;8.468;2022-09-20T15:01:28;1.47;;;1.20;;
11111;SDS011;5609;49.466;8.468;2022-09-20T15:03:55;3.33;;;1.30;;
11111;SDS011;5609;49.466;8.468;2022-09-20T15:06:24;2.77;;;1.43;;
11111;SDS011;5609;49.466;8.468;2022-09-20T15:08:51;1.83;;;1.20;;
11111;SDS011;5609;49.466;8.468;2022-09-20T15:11:19;2.77;;;1.40;;
11111;SDS011;5609;49.466;8.468;2022-09-20T15:13:46;2.67;;;1.60;;
11111;SDS011;5609;49.466;8.468;2022-09-20T15:16:13;3.23;;;1.80;;
11111;SDS011;5609;49.466;8.468;2022-09-20T15:18:42;4.37;;;1.83;;
11111;SDS011;5609;49.466;8.468;2022-09-20T15:21:09;4.07;;;1.93;;
11111;SDS011;5609;49.466;8.468;2022-09-20T15:23:38;4.90;;;2.40;;
11111;SDS011;5609;49.466;8.468;2022-09-20T15:26:05;4.07;;;2.17;;
11111;SDS011;5609;49.466;8.468;2022-09-20T15:28:33;3.63;;;2.10;;
11111;SDS011;5609;49.466;8.468;2022-09-20T15:31:00;3.37;;;2.00;;
11111;SDS011;5609;49.466;8.468;2022-09-20T15:33:28;4.10;;;2.10;;
11111;SDS011;5609;49.466;8.468;2022-09-20T15:35:56;3.10;;;2.00;;
11111;SDS011;5609;49.466;8.468;2022-09-20T15:38:23;3.70;;;2.00;;
11111;SDS011;5609;49.466;8.468;2022-09-20T15:40:52;3.27;;;1.70;;
11111;SDS011;5609;49.466;8.468;2022-09-20T15:43:20;4.23;;;1.90;;
11111;SDS011;5609;49.466;8.468;2022-09-20T15:45:50;2.80;;;1.70;;
11111;SDS011;5609;49.466;8.468;2022-09-20T15:48:18;4.30;;;1.70;;
11111;SDS011;5609;49.466;8.468;2022-09-20T15:50:57;3.10;;;1.70;;
11111;SDS011;5609;49.466;8.468;2022-09-20T15:53:26;2.63;;;1.70;;
11111;SDS011;5609;49.466;8.468;2022-09-20T15:55:54;4.67;;;2.30;;
11111;SDS011;5609;49.466;8.468;2022-09-20T15:58:22;4.47;;;1.97;;
11111;SDS011;5609;49.466;8.468;2022-09-20T16:00:49;3.53;;;1.73;;
11111;SDS011;5609;49.466;8.468;2022-09-20T16:03:16;3.27;;;1.60;;
11111;SDS011;5609;49.466;8.468;2022-09-20T16:05:44;4.53;;;1.90;;
11111;SDS011;5609;49.466;8.468;2022-09-20T16:08:11;4.77;;;1.77;;
11111;SDS011;5609;49.466;8.468;2022-09-20T16:10:38;2.67;;;1.73;;
11111;SDS011;5609;49.466;8.468;2022-09-20T16:13:06;2.30;;;1.50;;
11111;SDS011;5609;49.466;8.468;2022-09-20T16:15:33;4.10;;;1.50;;
11111;SDS011;5609;49.466;8.468;2022-09-20T16:18:02;5.80;;;2.07;;